createdAt,value
2022-11-12T00:01:20.099Z,101081.34
2022-11-12T00:03:48.151Z,101069.84
2022-11-12T00:06:16.385Z,101064.50
2022-11-12T00:08:44.457Z,101071.63
2022-11-12T00:11:14.945Z,101089.25
2022-11-12T00:13:43.344Z,101073.38
2022-11-12T00:16:11.498Z,101067.13
2022-11-12T00:18:39.705Z,101032.78
2022-11-12T00:21:08.458Z,101051.34
2022-11-12T00:23:36.781Z,101068.88
2022-11-12T00:26:07.260Z,101067.97
2022-11-12T00:28:39.550Z,101066.16
2022-11-12T00:31:12.227Z,101076.72
2022-11-12T00:33:47.428Z,101064.44
2022-11-12T00:36:15.709Z,101064.44
2022-11-12T00:38:43.769Z,101075.00
2022-11-12T00:41:12.124Z,101053.91
2022-11-12T00:43:41.583Z,101046.69
2022-11-12T00:46:09.691Z,101043.13
2022-11-12T00:48:39.973Z,101065.13
2022-11-12T00:51:08.502Z,101052.88
2022-11-12T00:53:37.087Z,101051.97
2022-11-12T00:56:07.058Z,101060.78
2022-11-12T00:58:37.191Z,101067.94
2022-11-12T01:01:12.365Z,101049.44
2022-11-12T01:03:41.602Z,101061.75
2022-11-12T01:06:11.964Z,101061.75
2022-11-12T01:08:40.351Z,101062.66
2022-11-12T01:11:10.933Z,101071.41
2022-11-12T01:13:43.934Z,101065.25
2022-11-12T01:16:16.329Z,101069.66
2022-11-12T01:18:45.208Z,101083.78
2022-11-12T01:21:15.235Z,101081.97
2022-11-12T01:23:44.031Z,101076.63
2022-11-12T01:26:14.094Z,101088.16
2022-11-12T01:28:43.684Z,101075.00
2022-11-12T01:31:15.499Z,101081.13
2022-11-12T01:33:44.752Z,101082.84
2022-11-12T01:36:13.387Z,101084.63
2022-11-12T01:38:43.103Z,101089.03
2022-11-12T01:41:13.666Z,101083.78
2022-11-12T01:43:41.905Z,101089.88
2022-11-12T01:46:20.504Z,101085.47
2022-11-12T01:48:53.453Z,101080.31
2022-11-12T01:51:22.811Z,101088.19
2022-11-12T01:53:55.336Z,101089.06
2022-11-12T01:56:25.410Z,101088.16
2022-11-12T01:58:58.245Z,101097.91
2022-11-12T02:01:28.121Z,101096.06
2022-11-12T02:03:57.965Z,101094.38
2022-11-12T02:06:26.600Z,101107.50
2022-11-12T02:08:55.076Z,101101.41
2022-11-12T02:11:23.321Z,101103.06
2022-11-12T02:14:00.964Z,101106.66
2022-11-12T02:16:34.006Z,101110.22
2022-11-12T02:19:03.420Z,101095.25
2022-11-12T02:21:33.674Z,101092.59
2022-11-12T02:24:04.625Z,101097.03
2022-11-12T02:26:35.577Z,101101.31
2022-11-12T02:29:03.974Z,101095.91
2022-11-12T02:31:32.617Z,101098.66
2022-11-12T02:34:00.932Z,101066.31
2022-11-12T02:36:29.343Z,101120.69
2022-11-12T02:38:59.571Z,101115.38
2022-11-12T02:41:28.555Z,101115.44
2022-11-12T02:43:56.781Z,101127.66
2022-11-12T02:46:24.865Z,101118.81
2022-11-12T02:48:53.013Z,101125.84
2022-11-12T02:51:21.039Z,101132.94
2022-11-12T02:53:49.170Z,101115.25
2022-11-12T02:56:18.902Z,101124.16
2022-11-12T02:58:46.898Z,101127.66
2022-11-12T03:01:15.154Z,101124.97
2022-11-12T03:03:43.352Z,101127.59
2022-11-12T03:06:11.405Z,101135.56
2022-11-12T03:08:39.651Z,101125.81
2022-11-12T03:11:09.003Z,101136.44
2022-11-12T03:13:38.771Z,101134.72
2022-11-12T03:16:07.209Z,101143.44
2022-11-12T03:18:35.575Z,101154.06
2022-11-12T03:21:03.549Z,101148.81
2022-11-12T03:23:32.021Z,101155.88
2022-11-12T03:26:03.184Z,101140.78
2022-11-12T03:28:31.494Z,101139.09
2022-11-12T03:31:02.493Z,101140.81
2022-11-12T03:33:30.585Z,101155.88
2022-11-12T03:35:58.841Z,101155.78
2022-11-12T03:38:27.147Z,101148.75
2022-11-12T03:40:55.465Z,101159.31
2022-11-12T03:43:23.467Z,101142.66
2022-11-12T03:45:51.892Z,101143.53
2022-11-12T03:48:21.512Z,101166.50
2022-11-12T03:50:49.595Z,101161.19
2022-11-12T03:53:18.103Z,101163.84
2022-11-12T03:55:46.463Z,101170.06
2022-11-12T03:58:14.815Z,101175.31
2022-11-12T04:00:43.493Z,101177.09
2022-11-12T04:03:11.688Z,101168.31
2022-11-12T04:05:58.812Z,101179.75
2022-11-12T04:08:39.120Z,101180.63
2022-11-12T04:11:09.306Z,101183.31
2022-11-12T04:13:38.606Z,101180.66
2022-11-12T04:16:27.251Z,101188.72
2022-11-12T04:19:14.383Z,101191.44
2022-11-12T04:21:58.015Z,101194.00
2022-11-12T04:24:46.330Z,101198.47
2022-11-12T04:27:16.461Z,101213.41
2022-11-12T04:30:03.076Z,101212.53
2022-11-12T04:32:32.033Z,101212.53
2022-11-12T04:35:00.726Z,101227.47
2022-11-12T04:37:44.694Z,101231.06
2022-11-12T04:40:32.209Z,101235.50
2022-11-12T04:43:17.823Z,101233.81
2022-11-12T04:45:48.809Z,101221.34
2022-11-12T04:48:17.059Z,101219.69
2022-11-12T04:50:48.643Z,101226.81
2022-11-12T04:53:18.509Z,101225.84
2022-11-12T04:55:46.605Z,101219.50
2022-11-12T04:58:14.633Z,101214.22
2022-11-12T05:00:42.801Z,101205.50
2022-11-12T05:03:10.957Z,101223.16
2022-11-12T05:05:39.164Z,101230.16
2022-11-12T05:08:10.394Z,101223.94
2022-11-12T05:10:39.997Z,101215.25
2022-11-12T05:13:08.449Z,101228.34
2022-11-12T05:15:39.090Z,101225.75
2022-11-12T05:18:07.262Z,101237.09
2022-11-12T05:20:36.707Z,101252.44
2022-11-12T05:23:07.370Z,101253.31
2022-11-12T05:25:37.120Z,101265.56
2022-11-12T05:28:09.238Z,101269.31
2022-11-12T05:30:39.405Z,101281.53
2022-11-12T05:33:07.879Z,101279.78
2022-11-12T05:35:36.335Z,101276.25
2022-11-12T05:38:04.544Z,101272.63
2022-11-12T05:40:32.593Z,101262.00
2022-11-12T05:43:00.830Z,101277.81
2022-11-12T05:45:30.385Z,101269.16
2022-11-12T05:47:58.407Z,101267.34
2022-11-12T05:50:34.792Z,101275.28
2022-11-12T05:53:08.595Z,101279.72
2022-11-12T05:55:37.267Z,101279.72
2022-11-12T05:58:07.324Z,101283.22
2022-11-12T06:00:39.372Z,101292.06
2022-11-12T06:03:10.509Z,101288.50
2022-11-12T06:05:39.424Z,101294.78
2022-11-12T06:08:08.135Z,101286.78
2022-11-12T06:10:36.756Z,101297.38
2022-11-12T06:13:05.189Z,101295.53
2022-11-12T06:15:39.008Z,101304.47
2022-11-12T06:18:09.048Z,101309.84
2022-11-12T06:20:37.901Z,101306.31
2022-11-12T06:23:06.170Z,101317.75
2022-11-12T06:25:34.457Z,101336.25
2022-11-12T06:28:02.610Z,101343.34
2022-11-12T06:30:30.828Z,101312.00
2022-11-12T06:32:59.068Z,101359.41
2022-11-12T06:35:28.723Z,101340.81
2022-11-12T06:37:56.991Z,101353.94
2022-11-12T06:40:25.288Z,101342.41
2022-11-12T06:42:59.544Z,101339.88
2022-11-12T06:45:27.708Z,101338.91
2022-11-12T06:47:59.187Z,101344.28
2022-11-12T06:50:28.926Z,101346.03
2022-11-12T06:53:00.103Z,101357.59
2022-11-12T06:55:28.319Z,101360.13
2022-11-12T06:57:56.971Z,101370.72
2022-11-12T07:00:25.565Z,101367.25
2022-11-12T07:02:53.613Z,101379.56
2022-11-12T07:05:24.667Z,101398.00
2022-11-12T07:07:55.834Z,101394.50
2022-11-12T07:10:24.059Z,101405.06
2022-11-12T07:12:55.578Z,101409.66
2022-11-12T07:15:23.609Z,101399.97
2022-11-12T07:17:52.119Z,101424.69
2022-11-12T07:20:20.319Z,101414.16
2022-11-12T07:22:48.433Z,101438.78
2022-11-12T07:25:18.007Z,101447.63
2022-11-12T07:27:46.176Z,101441.38
2022-11-12T07:30:15.081Z,101449.31
2022-11-12T07:32:47.141Z,101459.00
2022-11-12T07:35:18.158Z,101469.59
2022-11-12T07:37:46.525Z,101484.56
2022-11-12T07:40:15.287Z,101481.16
2022-11-12T07:42:44.950Z,101483.66
2022-11-12T07:45:13.633Z,101475.72
2022-11-12T07:47:41.666Z,101472.28
2022-11-12T07:50:11.004Z,101481.00
2022-11-12T07:52:39.154Z,101495.25
2022-11-12T07:55:08.227Z,101500.53
2022-11-12T07:57:36.632Z,101500.53
2022-11-12T08:00:07.277Z,101512.97
2022-11-12T08:02:35.451Z,101513.75
2022-11-12T08:05:08.589Z,101512.84
2022-11-12T08:07:41.796Z,101507.53
2022-11-12T08:10:11.485Z,101510.22
2022-11-12T08:12:39.529Z,101509.25
2022-11-12T08:15:09.631Z,101513.81
2022-11-12T08:17:40.334Z,101509.38
2022-11-12T08:20:09.563Z,101519.81
2022-11-12T08:22:40.604Z,101533.97
2022-11-12T08:25:11.399Z,101534.91
2022-11-12T08:27:39.605Z,101541.13
2022-11-12T08:30:10.655Z,101560.50
2022-11-12T08:32:39.037Z,101572.88
2022-11-12T08:35:07.810Z,101590.59
2022-11-12T08:37:35.939Z,101579.97
2022-11-12T08:40:04.312Z,101563.19
2022-11-12T08:42:32.264Z,101564.91
2022-11-12T08:45:00.343Z,101571.06
2022-11-12T08:47:29.919Z,101574.63
2022-11-12T08:49:57.999Z,101588.78
2022-11-12T08:52:26.004Z,101594.09
2022-11-12T08:54:54.294Z,101593.22
2022-11-12T08:57:22.305Z,101588.72
2022-11-12T08:59:50.469Z,101588.75
2022-11-12T09:02:18.619Z,101582.56
2022-11-12T09:04:48.073Z,101594.00
2022-11-12T09:07:43.469Z,101571.00
2022-11-12T09:10:05.785Z,101579.81
2022-11-12T09:12:33.937Z,101593.91
2022-11-12T09:15:35.713Z,101604.59
2022-11-12T09:17:50.405Z,101596.59
2022-11-12T09:20:20.054Z,101606.34
2022-11-12T09:22:48.096Z,101608.06
2022-11-12T09:25:16.506Z,101616.94
2022-11-12T09:27:48.448Z,101608.06
2022-11-12T09:30:17.371Z,101602.75
2022-11-12T09:32:45.346Z,101618.75
2022-11-12T09:35:14.542Z,101624.00
2022-11-12T09:37:44.300Z,101612.44
2022-11-12T09:40:18.804Z,101595.78
2022-11-12T09:42:52.831Z,101615.06
2022-11-12T09:45:27.402Z,101632.78
2022-11-12T09:47:59.346Z,101636.25
2022-11-12T09:50:30.280Z,101639.94
2022-11-12T09:53:15.461Z,101666.47
2022-11-12T09:55:46.241Z,101667.31
2022-11-12T09:58:16.568Z,101668.09
2022-11-12T10:00:48.216Z,101674.19
2022-11-12T10:03:32.491Z,101687.53
2022-11-12T10:06:10.498Z,101685.72
2022-11-12T10:08:47.857Z,101699.75
2022-11-12T10:11:31.305Z,101708.56
2022-11-12T10:14:10.526Z,101714.78
2022-11-12T10:16:50.619Z,101713.03
2022-11-12T10:19:28.516Z,101709.47
2022-11-12T10:22:13.356Z,101736.94
2022-11-12T10:24:44.312Z,101738.69
2022-11-12T10:27:20.276Z,101737.81
2022-11-12T10:29:53.796Z,101740.44
2022-11-12T10:32:22.072Z,101743.97
2022-11-12T10:34:50.877Z,101743.97
2022-11-12T10:37:24.815Z,101756.50
2022-11-12T10:39:54.875Z,101752.97
2022-11-12T10:42:24.556Z,101768.81
2022-11-12T10:44:53.185Z,101773.16
2022-11-12T10:47:26.181Z,101780.22
2022-11-12T10:50:22.910Z,101770.50
2022-11-12T10:52:59.403Z,101762.59
2022-11-12T10:55:30.914Z,101754.63
2022-11-12T10:58:16.676Z,101757.25
2022-11-12T11:01:02.570Z,101767.88
2022-11-12T11:03:34.806Z,101777.66
2022-11-12T11:06:04.575Z,101774.97
2022-11-12T11:08:36.462Z,101766.09
2022-11-12T11:11:36.993Z,101758.13
2022-11-12T11:14:26.541Z,101751.03
2022-11-12T11:16:57.952Z,101749.25
2022-11-12T11:19:34.017Z,101755.44
2022-11-12T11:22:43.213Z,101771.25
2022-11-12T11:25:22.193Z,101754.41
2022-11-12T11:28:06.107Z,101766.78
2022-11-12T11:30:35.842Z,101772.16
2022-11-12T11:33:23.638Z,101773.03
2022-11-12T11:36:07.202Z,101775.66
2022-11-12T11:38:47.724Z,101772.13
2022-11-12T11:41:32.961Z,101777.44
2022-11-12T11:44:16.093Z,101773.88
2022-11-12T11:47:06.999Z,101774.03
2022-11-12T11:50:01.491Z,101792.59
2022-11-12T11:53:00.238Z,101811.13
2022-11-12T11:55:44.826Z,101802.31
2022-11-12T11:58:29.220Z,101807.56
2022-11-12T12:01:04.847Z,101807.56
2022-11-12T12:03:48.852Z,101804.94
2022-11-12T12:06:23.745Z,101800.53
2022-11-12T12:09:04.733Z,101811.13
2022-11-12T12:11:39.883Z,101814.66
2022-11-12T12:14:19.911Z,101811.06
2022-11-12T12:17:00.960Z,101825.19
2022-11-12T12:19:48.139Z,101832.25
2022-11-12T12:22:20.792Z,101837.50
2022-11-12T12:24:52.598Z,101838.47
2022-11-12T12:27:30.486Z,101841.09
2022-11-12T12:30:02.491Z,101842.84
2022-11-12T12:32:38.154Z,101842.88
2022-11-12T12:35:17.704Z,101848.25
2022-11-12T12:37:52.147Z,101851.75
2022-11-12T12:40:26.020Z,101846.44
2022-11-12T12:43:00.734Z,101858.81
2022-11-12T12:45:37.765Z,101857.03
2022-11-12T12:48:12.834Z,101860.59
2022-11-12T12:50:43.406Z,101864.13
2022-11-12T12:53:20.367Z,101866.75
2022-11-12T12:55:51.737Z,101876.50
2022-11-12T12:58:27.498Z,101888.88
2022-11-12T13:01:00.998Z,101883.59
2022-11-12T13:03:53.613Z,101886.25
2022-11-12T13:06:27.734Z,101892.44
2022-11-12T13:08:59.962Z,101887.16
2022-11-12T13:12:08.135Z,101895.09
2022-11-12T13:14:51.736Z,101889.81
2022-11-12T13:17:48.282Z,101890.66
2022-11-12T13:20:38.416Z,101892.47
2022-11-12T13:23:31.736Z,101888.94
2022-11-12T13:26:33.140Z,101899.56
2022-11-12T13:29:24.834Z,101890.72
2022-11-12T13:32:26.001Z,101906.63
2022-11-12T13:35:16.798Z,101910.16
2022-11-12T13:37:48.822Z,101922.50
2022-11-12T13:40:20.888Z,101915.47
2022-11-12T13:42:52.384Z,101918.09
2022-11-12T13:45:23.827Z,101914.59
2022-11-12T13:47:53.414Z,101899.56
2022-11-12T13:50:24.146Z,101915.44
2022-11-12T13:52:54.706Z,101921.59
2022-11-12T13:55:24.416Z,101917.22
2022-11-12T13:57:53.491Z,101911.03
2022-11-12T14:00:25.080Z,101918.97
2022-11-12T14:02:57.078Z,101920.75
2022-11-12T14:05:28.305Z,101920.75
2022-11-12T14:08:24.261Z,101917.19
2022-11-12T14:11:09.047Z,101926.03
2022-11-12T14:13:47.716Z,101916.31
2022-11-12T14:16:39.778Z,101925.19
2022-11-12T14:19:34.772Z,101906.63
2022-11-12T14:22:12.309Z,101923.38
2022-11-12T14:24:42.239Z,101927.81
2022-11-12T14:27:34.025Z,101931.34
2022-11-12T14:30:22.761Z,101933.09
2022-11-12T14:32:53.544Z,101937.53
2022-11-12T14:35:28.228Z,101941.94
2022-11-12T14:38:00.467Z,101945.44
2022-11-12T14:40:31.863Z,101940.16
2022-11-12T14:43:00.102Z,101941.94
2022-11-12T14:45:34.028Z,101940.19
2022-11-12T14:48:03.882Z,101946.31
2022-11-12T14:50:40.170Z,101943.66
2022-11-12T14:53:20.456Z,101947.19
2022-11-12T14:55:55.502Z,101948.09
2022-11-12T14:58:27.154Z,101943.66
2022-11-12T15:00:57.157Z,101941.91
2022-11-12T15:03:32.095Z,101940.13
2022-11-12T15:06:10.501Z,101934.84
2022-11-12T15:08:41.099Z,101924.25
2022-11-12T15:11:23.546Z,101926.00
2022-11-12T15:13:54.296Z,101941.91
2022-11-12T15:16:27.415Z,101936.59
2022-11-12T15:19:09.252Z,101938.38
2022-11-12T15:21:37.993Z,101934.84
2022-11-12T15:24:19.252Z,101927.78
2022-11-12T15:26:50.750Z,101941.88
2022-11-12T15:29:28.484Z,101917.19
2022-11-12T15:32:00.651Z,101933.09
2022-11-12T15:34:32.675Z,101941.88
2022-11-12T15:37:05.317Z,101941.88
2022-11-12T15:39:36.600Z,101928.66
2022-11-12T15:42:16.695Z,101938.34
2022-11-12T15:44:46.975Z,101940.09
2022-11-12T15:47:22.155Z,101941.84
2022-11-12T15:49:51.906Z,101933.88
2022-11-12T15:52:20.499Z,101922.38
2022-11-12T15:54:49.026Z,101928.59
2022-11-12T15:57:21.287Z,101929.47
2022-11-12T15:59:56.039Z,101933.88
2022-11-12T16:02:25.162Z,101928.59
2022-11-12T16:04:53.412Z,101934.75
2022-11-12T16:07:21.619Z,101935.66
2022-11-12T16:09:49.911Z,101940.03
2022-11-12T16:12:20.115Z,101942.69
2022-11-12T16:14:48.233Z,101949.72
2022-11-12T16:17:18.805Z,101946.22
2022-11-12T16:19:46.854Z,101940.06
2022-11-12T16:22:14.996Z,101933.00
2022-11-12T16:24:44.169Z,101940.94
2022-11-12T16:27:14.078Z,101943.56
2022-11-12T16:29:43.792Z,101952.38
2022-11-12T16:32:14.476Z,101945.28
2022-11-12T16:34:42.754Z,101941.78
2022-11-12T16:37:13.152Z,101948.75
2022-11-12T16:39:41.469Z,101941.72
2022-11-12T16:42:10.942Z,101941.72
2022-11-12T16:44:39.375Z,101954.97
2022-11-12T16:47:12.703Z,101951.47
2022-11-12T16:49:42.982Z,101936.47
2022-11-12T16:52:11.611Z,101939.13
2022-11-12T16:54:40.008Z,101940.03
2022-11-12T16:57:10.147Z,101932.13
2022-11-12T16:59:40.321Z,101927.75
2022-11-12T17:02:16.330Z,101925.06
2022-11-12T17:04:44.516Z,101908.31
2022-11-12T17:07:12.733Z,101933.00
2022-11-12T17:09:42.901Z,101932.13
2022-11-12T17:12:17.090Z,101936.53
2022-11-12T17:14:45.639Z,101926.88
2022-11-12T17:17:15.304Z,101931.28
2022-11-12T17:19:44.173Z,101918.97
2022-11-12T17:22:12.712Z,101913.63
2022-11-12T17:24:41.003Z,101941.00
2022-11-12T17:27:09.213Z,101933.91
2022-11-12T17:29:37.838Z,101941.88
2022-11-12T17:32:06.207Z,101946.25
2022-11-12T17:34:36.000Z,101943.66
2022-11-12T17:37:04.151Z,101941.00
2022-11-12T17:39:32.265Z,101941.88
2022-11-12T17:42:00.552Z,101948.91
2022-11-12T17:44:31.693Z,101948.91
2022-11-12T17:46:59.893Z,101957.75
2022-11-12T17:49:28.085Z,101952.44
2022-11-12T17:51:57.712Z,101959.47
2022-11-12T17:54:25.809Z,101955.97
2022-11-12T17:56:54.095Z,101952.44
2022-11-12T17:59:22.241Z,101948.91
2022-11-12T18:01:50.304Z,101934.78
2022-11-12T18:04:18.782Z,101945.34
2022-11-12T18:06:47.162Z,101941.84
2022-11-12T18:09:17.422Z,101961.25
2022-11-12T18:11:48.770Z,101966.53
2022-11-12T18:14:17.812Z,101957.72
2022-11-12T18:16:46.724Z,101941.81
2022-11-12T18:19:15.898Z,101954.19
2022-11-12T18:21:44.016Z,101973.56
2022-11-12T18:24:17.827Z,101963.88
2022-11-12T18:26:46.385Z,101966.53
2022-11-12T18:29:15.011Z,101967.44
2022-11-12T18:31:43.636Z,101965.66
2022-11-12T18:34:12.407Z,101969.22
2022-11-12T18:36:44.350Z,101965.69
2022-11-12T18:39:12.714Z,101957.72
2022-11-12T18:41:42.542Z,101959.47
2022-11-12T18:44:11.178Z,101945.34
2022-11-12T18:46:39.519Z,101969.19
2022-11-12T18:49:07.671Z,101965.63
2022-11-12T18:51:36.649Z,101941.81
2022-11-12T18:54:05.278Z,101963.00
2022-11-12T18:56:33.584Z,101963.00
2022-11-12T18:59:03.291Z,101957.72
2022-11-12T19:01:31.791Z,101959.50
2022-11-12T19:03:59.950Z,101963.00
2022-11-12T19:06:28.205Z,101964.78
2022-11-12T19:09:01.039Z,101963.91
2022-11-12T19:11:30.131Z,101963.91
2022-11-12T19:13:58.313Z,101966.56
2022-11-12T19:16:27.962Z,101971.84
2022-11-12T19:18:56.237Z,101968.28
2022-11-12T19:21:26.045Z,101977.13
2022-11-12T19:23:55.464Z,101968.31
2022-11-12T19:26:25.600Z,101978.88
2022-11-12T19:28:54.215Z,101964.75
2022-11-12T19:31:24.599Z,101963.00
2022-11-12T19:33:54.602Z,101973.59
2022-11-12T19:36:24.451Z,101964.78
2022-11-12T19:38:57.025Z,101967.41
2022-11-12T19:41:26.017Z,101973.59
2022-11-12T19:43:54.506Z,101970.97
2022-11-12T19:46:24.088Z,101972.72
2022-11-12T19:48:53.883Z,101971.84
2022-11-12T19:51:21.996Z,101977.16
2022-11-12T19:53:51.181Z,101976.25
2022-11-12T19:56:21.634Z,101979.78
2022-11-12T19:58:53.775Z,101967.41
2022-11-12T20:01:22.448Z,101985.09
2022-11-12T20:03:50.722Z,101996.53
2022-11-12T20:06:23.549Z,101996.53
2022-11-12T20:08:51.923Z,101991.25
2022-11-12T20:11:20.676Z,101997.41
2022-11-12T20:13:49.132Z,101993.00
2022-11-12T20:16:24.885Z,102003.63
2022-11-12T20:18:55.862Z,101996.53
2022-11-12T20:21:26.953Z,102012.41
2022-11-12T20:23:55.176Z,102013.31
2022-11-12T20:26:27.501Z,102005.34
2022-11-12T20:28:59.939Z,102005.34
2022-11-12T20:31:28.242Z,102017.69
2022-11-12T20:33:57.632Z,102025.66
2022-11-12T20:36:27.361Z,102015.06
2022-11-12T20:38:55.760Z,102023.03
2022-11-12T20:41:26.196Z,102008.88
2022-11-12T20:43:55.300Z,102025.69
2022-11-12T20:46:23.648Z,102031.84
2022-11-12T20:48:54.032Z,102019.50
2022-11-12T20:51:32.922Z,102019.50
2022-11-12T20:54:01.378Z,102017.75
2022-11-12T20:56:30.896Z,102016.88
2022-11-12T20:59:21.087Z,102023.03
2022-11-12T21:01:49.443Z,102019.50
2022-11-12T21:04:21.088Z,101968.28
2022-11-12T21:06:51.517Z,102008.88
2022-11-12T21:09:19.946Z,102029.22
2022-11-12T21:11:48.032Z,102021.28
2022-11-12T21:14:17.394Z,102023.94
2022-11-12T21:16:45.559Z,102030.09
2022-11-12T21:19:13.599Z,102027.44
2022-11-12T21:21:42.164Z,102015.94
2022-11-12T21:24:13.560Z,102032.72
2022-11-12T21:26:41.777Z,102005.38
2022-11-12T21:29:10.122Z,102023.00
2022-11-12T21:31:38.334Z,102026.53
2022-11-12T21:34:07.236Z,102033.63
2022-11-12T21:36:35.716Z,102023.03
2022-11-12T21:39:04.472Z,102030.13
2022-11-12T21:41:33.963Z,102030.09
2022-11-12T21:44:02.054Z,102035.41
2022-11-12T21:46:32.303Z,102032.75
2022-11-12T21:49:00.403Z,102040.69
2022-11-12T21:51:30.409Z,102044.19
2022-11-12T21:53:59.622Z,102038.91
2022-11-12T21:56:28.745Z,102037.16
2022-11-12T21:59:00.749Z,102028.34
2022-11-12T22:01:31.192Z,102038.91
2022-11-12T22:04:00.092Z,102038.00
2022-11-12T22:06:30.960Z,102034.50
2022-11-12T22:08:59.810Z,102033.63
2022-11-12T22:11:28.232Z,102037.16
2022-11-12T22:13:57.934Z,102038.91
2022-11-12T22:16:29.360Z,102044.19
2022-11-12T22:18:59.566Z,102041.56
2022-11-12T22:21:29.653Z,102038.91
2022-11-12T22:23:59.105Z,102036.25
2022-11-12T22:26:29.257Z,102031.88
2022-11-12T22:29:00.906Z,102033.63
2022-11-12T22:31:31.037Z,102035.38
2022-11-12T22:34:00.708Z,102030.09
2022-11-12T22:36:30.969Z,102029.25
2022-11-12T22:38:59.776Z,102028.34
2022-11-12T22:41:29.919Z,102032.78
2022-11-12T22:44:01.544Z,102033.66
2022-11-12T22:46:33.567Z,102028.34
2022-11-12T22:49:02.040Z,102030.09
2022-11-12T22:51:31.798Z,102031.84
2022-11-12T22:54:01.861Z,102028.31
2022-11-12T22:56:33.352Z,102021.28
2022-11-12T22:59:04.980Z,102021.25
2022-11-12T23:01:35.713Z,102030.09
2022-11-12T23:04:06.504Z,102017.75
2022-11-12T23:06:34.974Z,102020.38
2022-11-12T23:09:03.329Z,102026.56
2022-11-12T23:11:31.834Z,102023.03
2022-11-12T23:14:00.072Z,102022.16
2022-11-12T23:16:31.704Z,102016.00
2022-11-12T23:19:00.907Z,102019.50
2022-11-12T23:21:30.952Z,102024.78
2022-11-12T23:23:59.578Z,102012.44
2022-11-12T23:26:31.097Z,102014.19
2022-11-12T23:28:59.368Z,102015.09
2022-11-12T23:31:31.169Z,102004.53
2022-11-12T23:34:01.329Z,102007.19
2022-11-12T23:36:30.404Z,101995.72
2022-11-12T23:38:59.881Z,102001.88
2022-11-12T23:41:29.344Z,102001.88
2022-11-12T23:43:58.802Z,102003.63
2022-11-12T23:46:27.159Z,102005.41
2022-11-12T23:48:56.965Z,102005.41
2022-11-12T23:51:25.180Z,101998.31
2022-11-12T23:53:53.526Z,101983.34
2022-11-12T23:56:21.655Z,101990.41
2022-11-12T23:58:54.295Z,101993.06
